Portada
METAR-TAF:

METAR-TAF

Aeropuertos :

Yüksekova, Turquía

latitud: 37-33-06N, longitud: 44-14-01E, altitud: 1950 m

Observación

El informe se hizo hace 1 hora y 9 minutos, a las 11:50 UTC
Viento 7 kt del sur, variando entre este-sureste y oeste
Temperatura 9°C
Humedad 40%
Presión 1016 hPa
Visibilidad 10 km o más
Nubes dispersas a una altura de 3500 ft
Cielo nuboso a una altura de 8000 ft

METAR: LTCW 251150Z 18007KT 120V270 9999 SCT035 BKN080 09/M04 Q1016

Hora: 15:59 (12:59 UTC)

Pronóstico

El informe se hizo hace 2 horas y 19 minutos, a las 10:40 UTC
Pronóstico válido del 25 a las 12 UTC al 25 a las 21 UTC
Viento 9 kt del noreste
Visibilidad: 8000 m
Nubes dispersas a una altura de 3500 ft
Cielo nuboso a una altura de 8000 ft

TAF: LTCW 251040Z 2512/2521 05009KT 8000 SCT035 BKN080

Observaciones y pronósticos meteorológicos de más de 4000 aeropuertos (mensajes METAR y TAF).

Los puntos amarillos y rojos representan las estaciones disponibles.

Ponga el ratón en el punto deseado para ver el nombre de la estación.

Haga clic para ver las observaciones y los pronósticos meteorológicos.

Para cambiar el mapa : haga clic en los botones verdes con una cruz de color negro para hacer un zoom, en el botón verde con un guión para alejar o en las flechas verdes para mapas adyacentes.


METAR-TAF: